sensor_id;sensor_type;location;lat;lon;timestamp;pressure;altitude;pressure_sealevel;temperature
77728;BMP280;68312;53.502;10.030;2023-11-21T00:01:15;100399.44;;;9.19
77728;BMP280;68312;53.502;10.030;2023-11-21T00:03:42;100404.50;;;9.15
77728;BMP280;68312;53.502;10.030;2023-11-21T00:06:07;100417.31;;;9.08
77728;BMP280;68312;53.502;10.030;2023-11-21T00:08:37;100405.91;;;9.04
77728;BMP280;68312;53.502;10.030;2023-11-21T00:11:03;100415.47;;;9.00
77728;BMP280;68312;53.502;10.030;2023-11-21T00:13:31;100417.63;;;8.98
77728;BMP280;68312;53.502;10.030;2023-11-21T00:15:57;100418.72;;;8.97
77728;BMP280;68312;53.502;10.030;2023-11-21T00:18:22;100420.38;;;8.94
77728;BMP280;68312;53.502;10.030;2023-11-21T00:20:48;100430.28;;;8.88
77728;BMP280;68312;53.502;10.030;2023-11-21T00:23:13;100436.28;;;8.80
77728;BMP280;68312;53.502;10.030;2023-11-21T00:25:38;100448.75;;;8.75
77728;BMP280;68312;53.502;10.030;2023-11-21T00:28:05;100463.03;;;8.69
77728;BMP280;68312;53.502;10.030;2023-11-21T00:30:31;100479.69;;;8.65
77728;BMP280;68312;53.502;10.030;2023-11-21T00:32:56;100475.81;;;8.62
77728;BMP280;68312;53.502;10.030;2023-11-21T00:35:22;100479.34;;;8.58
77728;BMP280;68312;53.502;10.030;2023-11-21T00:37:47;100481.03;;;8.54
77728;BMP280;68312;53.502;10.030;2023-11-21T00:40:15;100491.34;;;8.50
77728;BMP280;68312;53.502;10.030;2023-11-21T00:42:41;100494.09;;;8.45
77728;BMP280;68312;53.502;10.030;2023-11-21T00:45:07;100516.22;;;8.39
77728;BMP280;68312;53.502;10.030;2023-11-21T00:47:33;100522.09;;;8.36
77728;BMP280;68312;53.502;10.030;2023-11-21T00:49:58;100523.75;;;8.33
77728;BMP280;68312;53.502;10.030;2023-11-21T00:52:24;100542.06;;;8.33
77728;BMP280;68312;53.502;10.030;2023-11-21T00:54:49;100543.88;;;8.24
77728;BMP280;68312;53.502;10.030;2023-11-21T00:57:15;100559.69;;;8.19
77728;BMP280;68312;53.502;10.030;2023-11-21T00:59:40;100570.28;;;8.14
77728;BMP280;68312;53.502;10.030;2023-11-21T01:02:06;100574.75;;;8.13
77728;BMP280;68312;53.502;10.030;2023-11-21T01:04:35;100579.31;;;8.08
77728;BMP280;68312;53.502;10.030;2023-11-21T01:07:00;100595.94;;;8.12
77728;BMP280;68312;53.502;10.030;2023-11-21T01:09:25;100608.97;;;8.04
77728;BMP280;68312;53.502;10.030;2023-11-21T01:11:51;100618.00;;;7.98
77728;BMP280;68312;53.502;10.030;2023-11-21T01:14:17;100626.19;;;7.96
77728;BMP280;68312;53.502;10.030;2023-11-21T01:16:42;100637.78;;;7.90
77728;BMP280;68312;53.502;10.030;2023-11-21T01:19:08;100642.25;;;7.90
77728;BMP280;68312;53.502;10.030;2023-11-21T01:21:34;100653.91;;;7.84
77728;BMP280;68312;53.502;10.030;2023-11-21T01:23:59;100680.91;;;7.79
77728;BMP280;68312;53.502;10.030;2023-11-21T01:26:25;100672.41;;;7.74
77728;BMP280;68312;53.502;10.030;2023-11-21T01:28:50;100681.06;;;7.75
77728;BMP280;68312;53.502;10.030;2023-11-21T01:31:15;100683.66;;;7.75
77728;BMP280;68312;53.502;10.030;2023-11-21T01:33:41;100683.75;;;7.70
77728;BMP280;68312;53.502;10.030;2023-11-21T01:36:06;100695.28;;;7.69
77728;BMP280;68312;53.502;10.030;2023-11-21T01:38:33;100713.22;;;7.62
77728;BMP280;68312;53.502;10.030;2023-11-21T01:40:59;100724.22;;;7.59
77728;BMP280;68312;53.502;10.030;2023-11-21T01:43:26;100730.53;;;7.58
77728;BMP280;68312;53.502;10.030;2023-11-21T01:45:54;100751.13;;;7.59
77728;BMP280;68312;53.502;10.030;2023-11-21T01:48:22;100749.72;;;7.53
77728;BMP280;68312;53.502;10.030;2023-11-21T01:50:48;100750.53;;;7.49
77728;BMP280;68312;53.502;10.030;2023-11-21T01:53:14;100748.13;;;7.52
77728;BMP280;68312;53.502;10.030;2023-11-21T01:55:41;100758.69;;;7.47
77728;BMP280;68312;53.502;10.030;2023-11-21T01:58:08;100769.69;;;7.44
77728;BMP280;68312;53.502;10.030;2023-11-21T02:00:35;100772.63;;;7.43
77728;BMP280;68312;53.502;10.030;2023-11-21T02:03:00;100770.09;;;7.38
77728;BMP280;68312;53.502;10.030;2023-11-21T02:05:26;100795.16;;;7.39
77728;BMP280;68312;53.502;10.030;2023-11-21T02:07:52;100796.50;;;7.37
77728;BMP280;68312;53.502;10.030;2023-11-21T02:10:18;100798.91;;;7.33
77728;BMP280;68312;53.502;10.030;2023-11-21T02:12:48;100821.19;;;7.31
77728;BMP280;68312;53.502;10.030;2023-11-21T02:15:17;100813.63;;;7.29
77728;BMP280;68312;53.502;10.030;2023-11-21T02:17:47;100826.75;;;7.24
77728;BMP280;68312;53.502;10.030;2023-11-21T02:20:16;100835.88;;;7.27
77728;BMP280;68312;53.502;10.030;2023-11-21T02:25:25;100848.25;;;7.21
77728;BMP280;68312;53.502;10.030;2023-11-21T02:27:55;100848.69;;;7.23
77728;BMP280;68312;53.502;10.030;2023-11-21T02:30:24;100857.41;;;7.19
77728;BMP280;68312;53.502;10.030;2023-11-21T02:32:51;100866.59;;;7.16
77728;BMP280;68312;53.502;10.030;2023-11-21T02:35:20;100875.50;;;7.15
77728;BMP280;68312;53.502;10.030;2023-11-21T02:37:51;100876.53;;;7.14
77728;BMP280;68312;53.502;10.030;2023-11-21T02:40:17;100881.28;;;7.13
77728;BMP280;68312;53.502;10.030;2023-11-21T02:42:50;100879.72;;;7.12
77728;BMP280;68312;53.502;10.030;2023-11-21T02:45:19;100891.94;;;7.16
77728;BMP280;68312;53.502;10.030;2023-11-21T02:47:46;100899.03;;;7.11
77728;BMP280;68312;53.502;10.030;2023-11-21T02:50:13;100902.75;;;7.10
77728;BMP280;68312;53.502;10.030;2023-11-21T02:52:39;100903.31;;;7.07
77728;BMP280;68312;53.502;10.030;2023-11-21T02:55:07;100908.03;;;7.05
77728;BMP280;68312;53.502;10.030;2023-11-21T02:57:33;100909.38;;;7.02
77728;BMP280;68312;53.502;10.030;2023-11-21T02:59:59;100907.22;;;7.09
77728;BMP280;68312;53.502;10.030;2023-11-21T03:02:25;100921.38;;;7.03
77728;BMP280;68312;53.502;10.030;2023-11-21T03:04:51;100927.13;;;7.00
77728;BMP280;68312;53.502;10.030;2023-11-21T03:07:17;100931.31;;;7.01
77728;BMP280;68312;53.502;10.030;2023-11-21T03:09:44;100934.72;;;7.02
77728;BMP280;68312;53.502;10.030;2023-11-21T03:12:11;100939.16;;;7.01
77728;BMP280;68312;53.502;10.030;2023-11-21T03:14:37;100952.47;;;7.00
77728;BMP280;68312;53.502;10.030;2023-11-21T03:17:03;100958.00;;;6.98
77728;BMP280;68312;53.502;10.030;2023-11-21T03:19:30;100957.22;;;6.98
77728;BMP280;68312;53.502;10.030;2023-11-21T03:21:55;100960.41;;;6.95
77728;BMP280;68312;53.502;10.030;2023-11-21T03:24:21;100958.06;;;6.93
77728;BMP280;68312;53.502;10.030;2023-11-21T03:26:47;100972.47;;;6.91
77728;BMP280;68312;53.502;10.030;2023-11-21T03:29:13;100980.56;;;6.89
77728;BMP280;68312;53.502;10.030;2023-11-21T03:31:40;100975.94;;;6.86
77728;BMP280;68312;53.502;10.030;2023-11-21T03:34:05;100981.69;;;6.83
77728;BMP280;68312;53.502;10.030;2023-11-21T03:36:31;100984.28;;;6.83
77728;BMP280;68312;53.502;10.030;2023-11-21T03:38:57;100986.69;;;6.80
77728;BMP280;68312;53.502;10.030;2023-11-21T03:41:22;100987.75;;;6.79
77728;BMP280;68312;53.502;10.030;2023-11-21T03:43:48;100980.47;;;6.76
77728;BMP280;68312;53.502;10.030;2023-11-21T03:46:13;100994.38;;;6.72
77728;BMP280;68312;53.502;10.030;2023-11-21T03:48:39;100997.53;;;6.69
77728;BMP280;68312;53.502;10.030;2023-11-21T03:51:05;100992.09;;;6.65
77728;BMP280;68312;53.502;10.030;2023-11-21T03:53:30;100990.06;;;6.62
77728;BMP280;68312;53.502;10.030;2023-11-21T03:55:55;100996.91;;;6.53
77728;BMP280;68312;53.502;10.030;2023-11-21T03:58:21;100995.94;;;6.50
77728;BMP280;68312;53.502;10.030;2023-11-21T04:00:47;101004.06;;;6.48
77728;BMP280;68312;53.502;10.030;2023-11-21T04:03:14;101012.16;;;6.47
77728;BMP280;68312;53.502;10.030;2023-11-21T04:05:40;101001.97;;;6.45
77728;BMP280;68312;53.502;10.030;2023-11-21T04:08:06;101009.53;;;6.47
77728;BMP280;68312;53.502;10.030;2023-11-21T04:10:32;101004.31;;;6.47
77728;BMP280;68312;53.502;10.030;2023-11-21T04:12:57;101012.16;;;6.47
77728;BMP280;68312;53.502;10.030;2023-11-21T04:15:23;101023.09;;;6.49
77728;BMP280;68312;53.502;10.030;2023-11-21T04:17:48;101029.84;;;6.50
77728;BMP280;68312;53.502;10.030;2023-11-21T04:20:14;101024.06;;;6.52
77728;BMP280;68312;53.502;10.030;2023-11-21T04:22:40;101029.28;;;6.52
77728;BMP280;68312;53.502;10.030;2023-11-21T04:25:08;101032.66;;;6.53
77728;BMP280;68312;53.502;10.030;2023-11-21T04:27:36;101031.59;;;6.54
77728;BMP280;68312;53.502;10.030;2023-11-21T04:30:01;101034.22;;;6.54
77728;BMP280;68312;53.502;10.030;2023-11-21T04:32:26;101042.03;;;6.59
77728;BMP280;68312;53.502;10.030;2023-11-21T04:34:52;101032.91;;;6.56
77728;BMP280;68312;53.502;10.030;2023-11-21T04:37:17;101047.47;;;6.62
77728;BMP280;68312;53.502;10.030;2023-11-21T04:39:43;101045.66;;;6.63
77728;BMP280;68312;53.502;10.030;2023-11-21T04:42:08;101056.84;;;6.63
77728;BMP280;68312;53.502;10.030;2023-11-21T04:44:33;101058.88;;;6.66
77728;BMP280;68312;53.502;10.030;2023-11-21T04:46:59;101062.56;;;6.65
77728;BMP280;68312;53.502;10.030;2023-11-21T04:49:24;101070.38;;;6.65
77728;BMP280;68312;53.502;10.030;2023-11-21T04:51:49;101079.22;;;6.69
77728;BMP280;68312;53.502;10.030;2023-11-21T04:54:15;101082.59;;;6.70
77728;BMP280;68312;53.502;10.030;2023-11-21T04:56:40;101087.06;;;6.69
77728;BMP280;68312;53.502;10.030;2023-11-21T04:59:06;101094.31;;;6.72
77728;BMP280;68312;53.502;10.030;2023-11-21T05:01:31;101093.56;;;6.72
77728;BMP280;68312;53.502;10.030;2023-11-21T05:03:58;101098.00;;;6.71
77728;BMP280;68312;53.502;10.030;2023-11-21T05:06:23;101096.69;;;6.69
77728;BMP280;68312;53.502;10.030;2023-11-21T05:08:49;101102.19;;;6.67
77728;BMP280;68312;53.502;10.030;2023-11-21T05:11:27;101100.63;;;6.66
77728;BMP280;68312;53.502;10.030;2023-11-21T05:13:54;101095.41;;;6.66
77728;BMP280;68312;53.502;10.030;2023-11-21T05:16:21;101098.03;;;6.66
77728;BMP280;68312;53.502;10.030;2023-11-21T05:18:47;101100.13;;;6.64
77728;BMP280;68312;53.502;10.030;2023-11-21T05:21:13;101108.28;;;6.63
77728;BMP280;68312;53.502;10.030;2023-11-21T05:23:38;101108.28;;;6.63
77728;BMP280;68312;53.502;10.030;2023-11-21T05:26:05;101110.09;;;6.62
77728;BMP280;68312;53.502;10.030;2023-11-21T05:28:30;101108.81;;;6.60
77728;BMP280;68312;53.502;10.030;2023-11-21T05:30:55;101107.94;;;6.64
77728;BMP280;68312;53.502;10.030;2023-11-21T05:33:21;101116.28;;;6.66
77728;BMP280;68312;53.502;10.030;2023-11-21T05:35:46;101118.38;;;6.64
77728;BMP280;68312;53.502;10.030;2023-11-21T05:38:14;101129.06;;;6.68
77728;BMP280;68312;53.502;10.030;2023-11-21T05:40:39;101135.06;;;6.68
77728;BMP280;68312;53.502;10.030;2023-11-21T05:43:05;101140.28;;;6.68
77728;BMP280;68312;53.502;10.030;2023-11-21T05:45:32;101157.53;;;6.69
77728;BMP280;68312;53.502;10.030;2023-11-21T05:47:58;101162.22;;;6.67
77728;BMP280;68312;53.502;10.030;2023-11-21T05:50:24;101164.84;;;6.67
77728;BMP280;68312;53.502;10.030;2023-11-21T05:52:49;101173.44;;;6.68
77728;BMP280;68312;53.502;10.030;2023-11-21T05:55:15;101173.19;;;6.64
77728;BMP280;68312;53.502;10.030;2023-11-21T05:57:42;101181.00;;;6.64
77728;BMP280;68312;53.502;10.030;2023-11-21T06:00:10;101187.34;;;6.63
77728;BMP280;68312;53.502;10.030;2023-11-21T06:02:43;101202.69;;;6.65
77728;BMP280;68312;53.502;10.030;2023-11-21T06:05:09;101209.47;;;6.66
77728;BMP280;68312;53.502;10.030;2023-11-21T06:07:35;101216.53;;;6.65
77728;BMP280;68312;53.502;10.030;2023-11-21T06:10:03;101221.47;;;6.67
77728;BMP280;68312;53.502;10.030;2023-11-21T06:12:33;101218.56;;;6.68
77728;BMP280;68312;53.502;10.030;2023-11-21T06:15:04;101234.53;;;6.67
77728;BMP280;68312;53.502;10.030;2023-11-21T06:17:33;101242.56;;;6.70
77728;BMP280;68312;53.502;10.030;2023-11-21T06:20:01;101244.69;;;6.68
77728;BMP280;68312;53.502;10.030;2023-11-21T06:22:34;101258.50;;;6.69
77728;BMP280;68312;53.502;10.030;2023-11-21T06:25:04;101269.75;;;6.69
77728;BMP280;68312;53.502;10.030;2023-11-21T06:27:32;101268.69;;;6.70
77728;BMP280;68312;53.502;10.030;2023-11-21T06:29:58;101278.84;;;6.72
77728;BMP280;68312;53.502;10.030;2023-11-21T06:32:23;101284.34;;;6.70
77728;BMP280;68312;53.502;10.030;2023-11-21T06:34:49;101288.25;;;6.73
77728;BMP280;68312;53.502;10.030;2023-11-21T06:37:15;101307.31;;;6.73
77728;BMP280;68312;53.502;10.030;2023-11-21T06:39:40;101311.72;;;6.73
77728;BMP280;68312;53.502;10.030;2023-11-21T06:42:06;101307.81;;;6.70
77728;BMP280;68312;53.502;10.030;2023-11-21T06:44:32;101311.50;;;6.69
77728;BMP280;68312;53.502;10.030;2023-11-21T06:46:58;101316.22;;;6.67
77728;BMP280;68312;53.502;10.030;2023-11-21T06:49:24;101314.63;;;6.66
77728;BMP280;68312;53.502;10.030;2023-11-21T06:51:49;101312.81;;;6.67
77728;BMP280;68312;53.502;10.030;2023-11-21T06:54:15;101308.13;;;6.64
77728;BMP280;68312;53.502;10.030;2023-11-21T06:56:40;101316.97;;;6.68
77728;BMP280;68312;53.502;10.030;2023-11-21T06:59:06;101317.22;;;6.66
77728;BMP280;68312;53.502;10.030;2023-11-21T07:01:31;101314.63;;;6.66
77728;BMP280;68312;53.502;10.030;2023-11-21T07:04:04;101327.38;;;6.73
77728;BMP280;68312;53.502;10.030;2023-11-21T07:06:31;101340.44;;;6.73
77728;BMP280;68312;53.502;10.030;2023-11-21T07:08:56;101351.41;;;6.75
77728;BMP280;68312;53.502;10.030;2023-11-21T07:11:22;101344.34;;;6.75
77728;BMP280;68312;53.502;10.030;2023-11-21T07:13:47;101364.16;;;6.76
77728;BMP280;68312;53.502;10.030;2023-11-21T07:16:13;101366.28;;;6.74
77728;BMP280;68312;53.502;10.030;2023-11-21T07:18:40;101371.44;;;6.79
77728;BMP280;68312;53.502;10.030;2023-11-21T07:21:05;101382.69;;;6.80
77728;BMP280;68312;53.502;10.030;2023-11-21T07:23:31;101398.88;;;6.82
77728;BMP280;68312;53.502;10.030;2023-11-21T07:25:56;101412.41;;;6.83
77728;BMP280;68312;53.502;10.030;2023-11-21T07:28:24;101419.97;;;6.85
77728;BMP280;68312;53.502;10.030;2023-11-21T07:30:50;101427.03;;;6.84
77728;BMP280;68312;53.502;10.030;2023-11-21T07:33:16;101434.63;;;6.86
77728;BMP280;68312;53.502;10.030;2023-11-21T07:35:42;101440.81;;;6.90
77728;BMP280;68312;53.502;10.030;2023-11-21T07:38:08;101439.53;;;6.92
77728;BMP280;68312;53.502;10.030;2023-11-21T07:40:33;101444.97;;;6.96
77728;BMP280;68312;53.502;10.030;2023-11-21T07:42:59;101459.31;;;6.98
77728;BMP280;68312;53.502;10.030;2023-11-21T07:45:25;101461.16;;;6.98
77728;BMP280;68312;53.502;10.030;2023-11-21T07:47:55;101467.97;;;6.99
77728;BMP280;68312;53.502;10.030;2023-11-21T07:50:22;101473.94;;;6.99
77728;BMP280;68312;53.502;10.030;2023-11-21T07:52:48;101473.38;;;7.02
77728;BMP280;68312;53.502;10.030;2023-11-21T07:55:15;101462.69;;;7.04
77728;BMP280;68312;53.502;10.030;2023-11-21T07:57:40;101467.13;;;7.03
77728;BMP280;68312;53.502;10.030;2023-11-21T08:00:07;101472.06;;;7.05
77728;BMP280;68312;53.502;10.030;2023-11-21T08:02:34;101476.78;;;7.08
77728;BMP280;68312;53.502;10.030;2023-11-21T08:05:00;101483.53;;;7.13
77728;BMP280;68312;53.502;10.030;2023-11-21T08:07:25;101480.13;;;7.18
77728;BMP280;68312;53.502;10.030;2023-11-21T08:09:51;101473.56;;;7.20
77728;BMP280;68312;53.502;10.030;2023-11-21T08:12:17;101484.50;;;7.22
77728;BMP280;68312;53.502;10.030;2023-11-21T08:14:45;101496.00;;;7.26
77728;BMP280;68312;53.502;10.030;2023-11-21T08:17:10;101511.38;;;7.28
77728;BMP280;68312;53.502;10.030;2023-11-21T08:19:36;101518.44;;;7.27
77728;BMP280;68312;53.502;10.030;2023-11-21T08:22:03;101523.66;;;7.32
77728;BMP280;68312;53.502;10.030;2023-11-21T08:24:29;101532.78;;;7.35
77728;BMP280;68312;53.502;10.030;2023-11-21T08:26:54;101548.94;;;7.42
77728;BMP280;68312;53.502;10.030;2023-11-21T08:29:20;101560.69;;;7.44
77728;BMP280;68312;53.502;10.030;2023-11-21T08:31:45;101577.91;;;7.45
77728;BMP280;68312;53.502;10.030;2023-11-21T08:34:12;101582.34;;;7.49
77728;BMP280;68312;53.502;10.030;2023-11-21T08:36:42;101584.66;;;7.56
77728;BMP280;68312;53.502;10.030;2023-11-21T08:39:08;101599.22;;;7.67
77728;BMP280;68312;53.502;10.030;2023-11-21T08:41:34;101602.81;;;7.75
77728;BMP280;68312;53.502;10.030;2023-11-21T08:44:01;101613.75;;;7.82
77728;BMP280;68312;53.502;10.030;2023-11-21T08:46:27;101623.19;;;7.78
77728;BMP280;68312;53.502;10.030;2023-11-21T08:48:53;101633.16;;;7.76
77728;BMP280;68312;53.502;10.030;2023-11-21T08:51:18;101620.66;;;7.69
77728;BMP280;68312;53.502;10.030;2023-11-21T08:53:44;101623.03;;;7.65
77728;BMP280;68312;53.502;10.030;2023-11-21T08:56:13;101641.09;;;7.57
77728;BMP280;68312;53.502;10.030;2023-11-21T08:58:41;101634.31;;;7.51
77728;BMP280;68312;53.502;10.030;2023-11-21T09:01:07;101633.31;;;7.47
77728;BMP280;68312;53.502;10.030;2023-11-21T09:03:44;101642.75;;;7.43
77728;BMP280;68312;53.502;10.030;2023-11-21T09:06:11;101652.69;;;7.41
77728;BMP280;68312;53.502;10.030;2023-11-21T09:08:37;101646.69;;;7.41
77728;BMP280;68312;53.502;10.030;2023-11-21T09:11:03;101640.41;;;7.42
77728;BMP280;68312;53.502;10.030;2023-11-21T09:13:28;101667.84;;;7.39
77728;BMP280;68312;53.502;10.030;2023-11-21T09:15:54;101666.78;;;7.40
77728;BMP280;68312;53.502;10.030;2023-11-21T09:18:20;101654.25;;;7.42
77728;BMP280;68312;53.502;10.030;2023-11-21T09:20:45;101661.06;;;7.43
77728;BMP280;68312;53.502;10.030;2023-11-21T09:23:11;101662.09;;;7.42
77728;BMP280;68312;53.502;10.030;2023-11-21T09:25:37;101673.31;;;7.47
77728;BMP280;68312;53.502;10.030;2023-11-21T09:28:03;101672.75;;;7.50
77728;BMP280;68312;53.502;10.030;2023-11-21T09:30:33;101671.19;;;7.54
77728;BMP280;68312;53.502;10.030;2023-11-21T09:33:04;101672.97;;;7.59
77728;BMP280;68312;53.502;10.030;2023-11-21T09:35:32;101678.19;;;7.59
77728;BMP280;68312;53.502;10.030;2023-11-21T09:37:57;101673.50;;;7.61
77728;BMP280;68312;53.502;10.030;2023-11-21T09:40:24;101681.28;;;7.66
77728;BMP280;68312;53.502;10.030;2023-11-21T09:42:55;101697.53;;;7.63
77728;BMP280;68312;53.502;10.030;2023-11-21T09:45:32;101691.28;;;7.64
77728;BMP280;68312;53.502;10.030;2023-11-21T09:48:00;101696.22;;;7.70
77728;BMP280;68312;53.502;10.030;2023-11-21T09:50:26;101690.38;;;7.78
77728;BMP280;68312;53.502;10.030;2023-11-21T09:53:03;101688.81;;;7.82
77728;BMP280;68312;53.502;10.030;2023-11-21T09:55:37;101712.59;;;7.80
77728;BMP280;68312;53.502;10.030;2023-11-21T09:58:06;101717.81;;;7.80
77728;BMP280;68312;53.502;10.030;2023-11-21T10:00:41;101724.38;;;7.83
77728;BMP280;68312;53.502;10.030;2023-11-21T10:03:09;101719.38;;;7.91
77728;BMP280;68312;53.502;10.030;2023-11-21T10:05:36;101721.97;;;7.96
77728;BMP280;68312;53.502;10.030;2023-11-21T10:08:07;101716.16;;;8.04
77728;BMP280;68312;53.502;10.030;2023-11-21T10:10:38;101736.03;;;8.05
77728;BMP280;68312;53.502;10.030;2023-11-21T10:13:13;101745.22;;;7.98
77728;BMP280;68312;53.502;10.030;2023-11-21T10:15:42;101742.84;;;8.01
77728;BMP280;68312;53.502;10.030;2023-11-21T10:18:14;101745.22;;;7.98
77728;BMP280;68312;53.502;10.030;2023-11-21T10:20:40;101741.50;;;8.04
77728;BMP280;68312;53.502;10.030;2023-11-21T10:23:08;101744.16;;;7.99
77728;BMP280;68312;53.502;10.030;2023-11-21T10:25:36;101737.59;;;8.01
77728;BMP280;68312;53.502;10.030;2023-11-21T10:28:03;101740.94;;;8.11
77728;BMP280;68312;53.502;10.030;2023-11-21T10:30:36;101742.66;;;8.36
77728;BMP280;68312;53.502;10.030;2023-11-21T10:33:04;101770.66;;;8.30
77728;BMP280;68312;53.502;10.030;2023-11-21T10:35:47;101783.69;;;8.40
77728;BMP280;68312;53.502;10.030;2023-11-21T10:38:19;101789.84;;;8.59
77728;BMP280;68312;53.502;10.030;2023-11-21T10:40:47;101802.50;;;8.80
77728;BMP280;68312;53.502;10.030;2023-11-21T10:43:14;101805.59;;;8.87
77728;BMP280;68312;53.502;10.030;2023-11-21T10:45:40;101823.72;;;8.78
77728;BMP280;68312;53.502;10.030;2023-11-21T10:48:08;101820.41;;;8.68
77728;BMP280;68312;53.502;10.030;2023-11-21T10:50:36;101816.34;;;8.47
77728;BMP280;68312;53.502;10.030;2023-11-21T10:53:04;101805.72;;;8.34
77728;BMP280;68312;53.502;10.030;2023-11-21T10:55:31;101795.25;;;8.34
77728;BMP280;68312;53.502;10.030;2023-11-21T10:58:02;101808.28;;;8.39
77728;BMP280;68312;53.502;10.030;2023-11-21T11:00:31;101801.41;;;8.53
77728;BMP280;68312;53.502;10.030;2023-11-21T11:02:58;101813.13;;;8.65
77728;BMP280;68312;53.502;10.030;2023-11-21T11:05:25;101817.78;;;8.68
77728;BMP280;68312;53.502;10.030;2023-11-21T11:07:59;101823.06;;;8.58
77728;BMP280;68312;53.502;10.030;2023-11-21T11:10:27;101836.59;;;8.32
77728;BMP280;68312;53.502;10.030;2023-11-21T11:12:55;101831.94;;;8.24
77728;BMP280;68312;53.502;10.030;2023-11-21T11:15:26;101830.63;;;8.27
77728;BMP280;68312;53.502;10.030;2023-11-21T11:17:53;101845.31;;;8.23
77728;BMP280;68312;53.502;10.030;2023-11-21T11:20:23;101830.91;;;8.25
77728;BMP280;68312;53.502;10.030;2023-11-21T11:26:32;101835.63;;;8.23
77728;BMP280;68312;53.502;10.030;2023-11-21T11:35:07;101841.66;;;8.19
77728;BMP280;68312;53.502;10.030;2023-11-21T11:37:41;101836.19;;;8.15
77728;BMP280;68312;53.502;10.030;2023-11-21T11:40:07;101842.75;;;8.08
77728;BMP280;68312;53.502;10.030;2023-11-21T11:42:35;101840.13;;;8.08
77728;BMP280;68312;53.502;10.030;2023-11-21T11:45:01;101855.03;;;8.07
77728;BMP280;68312;53.502;10.030;2023-11-21T11:47:31;101857.38;;;8.14
77728;BMP280;68312;53.502;10.030;2023-11-21T11:52:50;101884.97;;;8.44
77728;BMP280;68312;53.502;10.030;2023-11-21T11:55:19;101890.94;;;8.55
77728;BMP280;68312;53.502;10.030;2023-11-21T11:57:53;101908.91;;;8.66
77728;BMP280;68312;53.502;10.030;2023-11-21T12:00:22;101904.19;;;8.73
77728;BMP280;68312;53.502;10.030;2023-11-21T12:03:03;101908.88;;;8.76
77728;BMP280;68312;53.502;10.030;2023-11-21T12:05:31;101901.78;;;8.76
77728;BMP280;68312;53.502;10.030;2023-11-21T12:11:33;101891.53;;;8.42
77728;BMP280;68312;53.502;10.030;2023-11-21T12:14:01;101913.56;;;8.36
77728;BMP280;68312;53.502;10.030;2023-11-21T12:16:27;101911.75;;;8.32
77728;BMP280;68312;53.502;10.030;2023-11-21T12:18:53;101922.22;;;8.22
77728;BMP280;68312;53.502;10.030;2023-11-21T12:21:19;101925.94;;;8.11
77728;BMP280;68312;53.502;10.030;2023-11-21T12:23:46;101923.88;;;7.98
77728;BMP280;68312;53.502;10.030;2023-11-21T12:26:13;101920.22;;;7.94
77728;BMP280;68312;53.502;10.030;2023-11-21T12:28:39;101937.00;;;7.83
77728;BMP280;68312;53.502;10.030;2023-11-21T12:31:05;101923.66;;;7.80
77728;BMP280;68312;53.502;10.030;2023-11-21T12:33:35;101922.88;;;7.79
77728;BMP280;68312;53.502;10.030;2023-11-21T12:36:00;101939.63;;;7.74
77728;BMP280;68312;53.502;10.030;2023-11-21T12:38:34;101938.84;;;7.73
77728;BMP280;68312;53.502;10.030;2023-11-21T12:41:00;101936.47;;;7.72
77728;BMP280;68312;53.502;10.030;2023-11-21T12:43:25;101939.63;;;7.69
77728;BMP280;68312;53.502;10.030;2023-11-21T12:46:04;101944.84;;;7.69
77728;BMP280;68312;53.502;10.030;2023-11-21T12:48:39;101954.28;;;7.65
77728;BMP280;68312;53.502;10.030;2023-11-21T12:51:11;101951.38;;;7.61
77728;BMP280;68312;53.502;10.030;2023-11-21T12:53:39;101944.59;;;7.55
77728;BMP280;68312;53.502;10.030;2023-11-21T12:56:15;101942.50;;;7.52
77728;BMP280;68312;53.502;10.030;2023-11-21T12:58:45;101943.81;;;7.50
77728;BMP280;68312;53.502;10.030;2023-11-21T13:01:16;101933.38;;;7.50
77728;BMP280;68312;53.502;10.030;2023-11-21T13:03:46;101933.38;;;7.50
77728;BMP280;68312;53.502;10.030;2023-11-21T13:06:17;101949.03;;;7.50
77728;BMP280;68312;53.502;10.030;2023-11-21T13:08:44;101946.44;;;7.55
77728;BMP280;68312;53.502;10.030;2023-11-21T13:11:11;101951.66;;;7.50
77728;BMP280;68312;53.502;10.030;2023-11-21T13:17:19;101944.63;;;7.41
77728;BMP280;68312;53.502;10.030;2023-11-21T13:19:47;101957.66;;;7.31
77728;BMP280;68312;53.502;10.030;2023-11-21T13:22:13;101952.97;;;7.33
77728;BMP280;68312;53.502;10.030;2023-11-21T13:24:38;101954.75;;;7.22
77728;BMP280;68312;53.502;10.030;2023-11-21T13:27:04;101942.22;;;7.19
77728;BMP280;68312;53.502;10.030;2023-11-21T13:29:29;101943.28;;;7.13
77728;BMP280;68312;53.502;10.030;2023-11-21T13:31:54;101934.63;;;7.13
77728;BMP280;68312;53.502;10.030;2023-11-21T13:34:20;101940.13;;;7.12
77728;BMP280;68312;53.502;10.030;2023-11-21T13:36:47;101945.88;;;7.09
77728;BMP280;68312;53.502;10.030;2023-11-21T13:39:13;101947.47;;;7.10
77728;BMP280;68312;53.502;10.030;2023-11-21T13:41:40;101948.75;;;7.12
77728;BMP280;68312;53.502;10.030;2023-11-21T13:47:46;101950.06;;;7.10
77728;BMP280;68312;53.502;10.030;2023-11-21T13:50:12;101939.59;;;7.05
77728;BMP280;68312;53.502;10.030;2023-11-21T13:52:43;101966.75;;;7.04
77728;BMP280;68312;53.502;10.030;2023-11-21T13:55:10;101945.06;;;7.03
77728;BMP280;68312;53.502;10.030;2023-11-21T13:57:40;101959.16;;;7.02
77728;BMP280;68312;53.502;10.030;2023-11-21T14:00:08;101959.44;;;7.01
77728;BMP280;68312;53.502;10.030;2023-11-21T14:02:51;101968.06;;;6.96
77728;BMP280;68312;53.502;10.030;2023-11-21T14:05:16;101959.41;;;6.96
77728;BMP280;68312;53.502;10.030;2023-11-21T14:07:48;101965.94;;;6.93
77728;BMP280;68312;53.502;10.030;2023-11-21T14:10:14;101969.84;;;6.91
77728;BMP280;68312;53.502;10.030;2023-11-21T14:12:41;101970.88;;;6.90
77728;BMP280;68312;53.502;10.030;2023-11-21T14:18:48;101987.59;;;6.89
77728;BMP280;68312;53.502;10.030;2023-11-21T14:21:29;101987.88;;;6.87
77728;BMP280;68312;53.502;10.030;2023-11-21T14:23:54;101983.41;;;6.83
77728;BMP280;68312;53.502;10.030;2023-11-21T14:26:20;101997.00;;;6.85